Terminal Aerodrome Forecast
Issued by NWS Pueblo, CO

Home | Current Version | Previous Version | Text Only | Print | Product List | Glossary On
Versions: 1 2 3 4 5 6 7 8 9 10 11 12 13 14 15 16 17 18 19 20 21 22 23 24 25 26 27 28 29 30 31 32 33 34 35 36 37 38 39 40 41 42 43 44 45 46 47 48 49 50
000
FTUS45 KPUB 261131
TAFCOS
TAF
KCOS 261131Z 2612/2712 14006KT 1SM BR BKN003 OVC012
      TEMPO 2612/2615 1/4SM FG OVC002
     FM261800 VRB04KT P6SM FEW003 BKN008 OVC025
     FM262200 15012KT P6SM FEW008 SCT025 OVC035
     FM270300 12007KT P6SM BKN015 OVC025=

USA.gov is the U.S. government's official web portal to all federal, state and local government web resources and services.